Time;durP1;ratioP1;P1;durP2;ratioP2;P2;SDS_P1;SDS_P2;PMS_P1;PMS_P2;Temp;Humidity;BMP_temperature;BMP_pressure;BME280_temperature;BME280_humidity;BME280_pressure;Samples;Min_cycle;Max_cycle;Signal;HPM_P1;HPM_P2
2022/04/18 00:00:14;;;;;;;2.40;1.90;;;;;;;4.00;70.28;96145.69;5053736;28;24793;-73
2022/04/18 00:02:41;;;;;;;2.00;1.70;;;;;;;3.92;70.87;96137.41;5053775;28;24427;-73
2022/04/18 00:05:09;;;;;;;6.80;2.10;;;;;;;3.91;71.15;96135.75;5053556;28;24819;-74
2022/04/18 00:07:36;;;;;;;2.33;1.90;;;;;;;3.90;70.39;96134.06;5053813;28;24538;-74
2022/04/18 00:10:03;;;;;;;6.78;2.75;;;;;;;3.83;71.74;96133.41;5053857;28;24422;-73
2022/04/18 00:12:30;;;;;;;3.20;2.35;;;;;;;3.89;71.04;96134.94;5053608;28;24416;-73
2022/04/18 00:14:57;;;;;;;3.38;2.47;;;;;;;3.98;71.08;96126.97;5053329;28;24434;-73
2022/04/18 00:17:23;;;;;;;2.97;2.05;;;;;;;4.09;70.77;96126.66;5053601;28;24423;-74
2022/04/18 00:19:50;;;;;;;2.00;1.73;;;;;;;4.20;69.54;96124.59;5053758;28;24555;-73
2022/04/18 00:22:18;;;;;;;3.13;2.33;;;;;;;4.22;70.07;96127.09;5053493;28;24423;-73
2022/04/18 00:24:45;;;;;;;2.47;1.80;;;;;;;4.27;68.74;96127.78;5053556;28;24844;-73
2022/04/18 00:27:11;;;;;;;3.10;2.20;;;;;;;4.06;69.39;96119.88;5053726;28;24672;-73
2022/04/18 00:29:38;;;;;;;5.43;2.07;;;;;;;4.09;69.74;96118.97;5053093;28;24824;-74
2022/04/18 00:32:05;;;;;;;3.03;2.00;;;;;;;3.77;71.25;96115.66;5053007;28;25050;-73
2022/04/18 00:34:32;;;;;;;3.90;2.57;;;;;;;3.60;72.70;96121.31;5053205;28;25199;-73
2022/04/18 00:36:58;;;;;;;3.13;2.15;;;;;;;3.45;72.94;96114.09;5053586;28;24415;-74
2022/04/18 00:39:26;;;;;;;2.95;2.25;;;;;;;3.52;71.53;96113.03;5053242;28;24427;-74
2022/04/18 00:41:52;;;;;;;4.10;2.50;;;;;;;3.50;70.89;96119.06;5053180;28;24419;-74
2022/04/18 00:44:19;;;;;;;3.80;2.40;;;;;;;3.34;72.73;96121.25;5052847;28;24953;-74
2022/04/18 00:46:45;;;;;;;4.70;2.58;;;;;;;3.35;72.03;96117.78;5053135;28;24484;-74
2022/04/18 00:49:11;;;;;;;3.13;2.13;;;;;;;3.24;73.58;96104.47;5052754;28;24451;-73
2022/04/18 00:51:38;;;;;;;4.90;2.45;;;;;;;3.25;73.64;96104.41;5051792;28;25157;-73
2022/04/18 00:54:05;;;;;;;6.70;2.20;;;;;;;3.29;72.96;96106.00;5052752;28;24529;-74
2022/04/18 00:56:33;;;;;;;3.60;2.30;;;;;;;3.30;72.96;96104.25;5053034;28;24426;-74
2022/04/18 00:59:00;;;;;;;3.00;2.10;;;;;;;3.13;72.39;96100.47;5053050;28;24869;-73
2022/04/18 01:01:27;;;;;;;3.00;2.45;;;;;;;3.10;74.10;96099.72;5052764;28;24828;-74
2022/04/18 01:03:53;;;;;;;2.30;2.03;;;;;;;3.16;73.52;96094.44;5052871;28;24423;-73
2022/04/18 01:06:20;;;;;;;3.25;2.25;;;;;;;3.18;73.39;96092.66;5052236;28;24824;-73
2022/04/18 01:08:48;;;;;;;3.83;2.35;;;;;;;3.19;72.61;96089.25;5052335;28;24848;-73
2022/04/18 01:11:15;;;;;;;3.00;2.17;;;;;;;3.07;73.15;96087.84;5052057;28;24418;-73
2022/04/18 01:13:45;;;;;;;4.03;2.45;;;;;;;2.99;75.06;96091.50;5052091;28;24477;-74
2022/04/18 01:16:12;;;;;;;3.67;2.10;;;;;;;2.93;74.39;96087.41;5052253;28;24518;-74
2022/04/18 01:18:39;;;;;;;3.53;2.33;;;;;;;2.92;75.83;96078.88;5052176;28;24427;-73
2022/04/18 01:21:07;;;;;;;2.92;2.00;;;;;;;2.97;75.07;96072.81;5051912;28;24522;-73
2022/04/18 01:23:33;;;;;;;2.63;2.03;;;;;;;3.03;75.58;96065.78;5052039;28;24554;-74
2022/04/18 01:28:59;;;;;;;2.53;1.92;;;;;;;3.04;75.89;96066.63;5052054;28;24959;-74
2022/04/18 01:31:26;;;;;;;2.22;2.03;;;;;;;3.06;75.94;96063.16;5051544;28;25006;-73
2022/04/18 01:33:52;;;;;;;2.65;2.17;;;;;;;3.19;74.80;96063.66;5051788;28;24449;-73
2022/04/18 01:36:20;;;;;;;5.00;2.65;;;;;;;3.26;74.43;96064.28;5051647;28;24415;-73
2022/04/18 01:38:46;;;;;;;5.40;2.30;;;;;;;3.18;74.23;96066.22;5051660;28;24777;-73
2022/04/18 01:41:13;;;;;;;2.43;2.17;;;;;;;3.11;72.94;96063.00;5051508;28;24411;-73
2022/04/18 01:43:39;;;;;;;5.65;2.40;;;;;;;2.92;74.27;96058.41;5051707;28;24768;-73
2022/04/18 01:46:06;;;;;;;3.00;2.17;;;;;;;2.75;75.93;96059.78;5051515;28;24423;-74
2022/04/18 01:48:32;;;;;;;4.15;2.50;;;;;;;2.77;75.48;96061.41;5051686;28;24475;-73
2022/04/18 01:50:59;;;;;;;4.55;2.97;;;;;;;2.66;76.55;96060.84;5051105;28;24792;-73
2022/04/18 01:53:28;;;;;;;4.47;3.00;;;;;;;2.62;76.38;96057.53;5051449;28;25075;-73
2022/04/18 01:55:54;;;;;;;6.68;2.75;;;;;;;2.65;75.97;96060.03;5051486;28;24501;-74
2022/04/18 01:58:20;;;;;;;2.97;2.43;;;;;;;2.65;76.76;96064.28;5051650;28;24857;-74
2022/04/18 02:00:47;;;;;;;3.30;2.43;;;;;;;2.69;75.07;96059.94;5051462;28;24467;-74
2022/04/18 02:03:13;;;;;;;3.73;2.60;;;;;;;2.56;77.40;96056.84;5051056;28;24567;-74
2022/04/18 02:05:42;;;;;;;4.35;2.45;;;;;;;2.53;77.94;96050.13;5050851;28;24430;-73
2022/04/18 02:08:09;;;;;;;3.40;2.58;;;;;;;2.63;76.73;96050.69;5050935;28;24984;-74
2022/04/18 02:10:36;;;;;;;3.97;2.83;;;;;;;2.88;75.91;96044.03;5051077;28;24423;-73
2022/04/18 02:13:03;;;;;;;4.37;2.87;;;;;;;2.83;76.59;96045.06;5050889;28;24826;-73
2022/04/18 02:15:31;;;;;;;4.00;2.72;;;;;;;2.62;77.69;96041.34;5051066;28;24964;-73
2022/04/18 02:17:57;;;;;;;2.72;2.28;;;;;;;2.58;78.42;96039.78;5050946;28;24433;-74
2022/04/18 02:20:24;;;;;;;4.07;2.72;;;;;;;2.63;77.48;96037.91;5050901;28;25083;-74
2022/04/18 02:22:50;;;;;;;2.63;2.38;;;;;;;2.58;78.32;96032.09;5050899;28;24532;-73
2022/04/18 02:25:17;;;;;;;2.35;2.10;;;;;;;2.63;76.66;96033.66;5050639;28;24433;-74
2022/04/18 02:27:44;;;;;;;2.80;2.20;;;;;;;2.65;76.76;96029.31;5050746;28;24419;-74
2022/04/18 02:30:11;;;;;;;4.38;2.40;;;;;;;2.73;75.03;96033.41;5050778;28;24427;-74
2022/04/18 02:32:50;;;;;;;4.03;2.45;;;;;;;2.54;77.69;96030.50;5050484;28;24419;-74
2022/04/18 02:35:17;;;;;;;2.67;2.17;;;;;;;2.47;78.39;96027.28;5050799;28;24820;-74
2022/04/18 02:37:44;;;;;;;2.53;2.20;;;;;;;2.46;78.78;96027.31;5050743;28;24423;-73
2022/04/18 02:40:11;;;;;;;3.60;2.60;;;;;;;2.47;78.48;96027.28;5050555;28;24983;-74
2022/04/18 02:42:38;;;;;;;6.03;2.50;;;;;;;2.52;77.75;96030.56;5050630;28;24422;-73
2022/04/18 02:45:07;;;;;;;2.37;2.10;;;;;;;2.57;75.79;96027.88;5050229;28;24454;-73
2022/04/18 02:47:33;;;;;;;2.63;2.28;;;;;;;2.54;77.14;96026.22;5050444;28;24427;-74
2022/04/18 02:50:00;;;;;;;2.45;2.03;;;;;;;2.47;77.47;96026.44;5050594;28;24426;-74
2022/04/18 02:52:26;;;;;;;2.97;2.25;;;;;;;2.42;77.38;96026.56;5050576;28;24422;-74
2022/04/18 02:54:53;;;;;;;3.95;2.15;;;;;;;2.30;77.97;96020.06;5050352;28;24415;-73
2022/04/18 02:57:19;;;;;;;3.85;2.45;;;;;;;2.30;77.59;96019.22;5050428;28;24480;-74
2022/04/18 02:59:46;;;;;;;3.03;2.42;;;;;;;2.60;77.08;96025.25;5050234;28;24421;-73
2022/04/18 03:02:13;;;;;;;5.03;2.63;;;;;;;2.48;78.20;96018.72;5050081;28;24419;-74
2022/04/18 03:04:40;;;;;;;13.37;2.93;;;;;;;2.16;79.70;96020.41;5050447;28;24923;-74
2022/04/18 03:07:06;;;;;;;4.28;2.15;;;;;;;2.07;80.10;96018.09;5050179;28;24420;-73
2022/04/18 03:09:33;;;;;;;3.00;2.28;;;;;;;2.06;77.44;96008.75;5050239;28;24532;-73
2022/04/18 03:12:02;;;;;;;10.23;2.50;;;;;;;1.97;78.56;96008.16;5050189;28;24425;-73
2022/04/18 03:14:28;;;;;;;3.78;2.38;;;;;;;1.96;77.92;96011.56;5049738;28;24537;-73
2022/04/18 03:16:55;;;;;;;3.30;2.70;;;;;;;1.84;78.93;96005.06;5049993;28;24972;-74
2022/04/18 03:19:22;;;;;;;3.65;2.60;;;;;;;1.83;78.36;96006.78;5049915;28;24972;-73
2022/04/18 03:21:49;;;;;;;8.93;2.45;;;;;;;1.75;79.37;96002.75;5050168;28;24833;-73
2022/04/18 03:24:15;;;;;;;2.75;2.13;;;;;;;1.86;77.85;95999.06;5050135;28;25027;-73
2022/04/18 03:26:42;;;;;;;3.95;2.40;;;;;;;1.77;79.52;96004.38;5049925;28;24438;-73
2022/04/18 03:29:08;;;;;;;3.95;2.35;;;;;;;1.74;80.13;95995.94;5049923;28;25151;-73
2022/04/18 03:31:35;;;;;;;2.95;2.50;;;;;;;1.53;81.10;95997.31;5049942;28;24430;-74
2022/04/18 03:34:01;;;;;;;2.47;2.23;;;;;;;1.44;82.61;95996.63;5050142;28;24415;-73
2022/04/18 03:41:57;;;;;;;4.57;2.77;;;;;;;1.41;84.61;95991.63;5050018;28;24453;-74
2022/04/18 03:44:23;;;;;;;2.57;2.33;;;;;;;1.59;82.53;95992.03;5050202;28;24430;-74
2022/04/18 03:46:50;;;;;;;3.67;2.70;;;;;;;1.61;82.92;95988.59;5050718;28;24419;-73
2022/04/18 03:49:18;;;;;;;3.88;2.58;;;;;;;1.70;83.03;95996.00;5050242;28;24447;-74
2022/04/18 03:51:46;;;;;;;5.75;2.92;;;;;;;1.79;81.50;95981.38;5050271;28;24419;-73
2022/04/18 03:54:12;;;;;;;5.68;2.45;;;;;;;1.73;82.68;95991.72;5050564;28;24426;-73
2022/04/18 03:56:38;;;;;;;5.40;2.50;;;;;;;1.78;82.55;95992.44;5049859;28;24422;-73
2022/04/18 03:59:05;;;;;;;2.67;2.13;;;;;;;1.82;82.28;95978.75;5049801;28;24412;-73
2022/04/18 04:01:31;;;;;;;3.90;2.30;;;;;;;1.94;82.13;95978.41;5049548;28;24832;-73
2022/04/18 04:03:58;;;;;;;2.95;2.40;;;;;;;1.97;79.40;95974.97;5049591;28;24793;-73
2022/04/18 04:06:24;;;;;;;4.38;2.70;;;;;;;1.76;81.01;95968.66;5049849;28;24481;-73
2022/04/18 04:08:52;;;;;;;6.50;2.58;;;;;;;1.74;80.86;95981.47;5049765;28;24454;-73
2022/04/18 04:11:18;;;;;;;4.53;2.50;;;;;;;1.41;81.29;95975.47;5049607;28;24422;-73
2022/04/18 04:13:45;;;;;;;2.72;2.33;;;;;;;0.93;89.04;95991.03;5049739;28;24446;-73
2022/04/18 04:16:11;;;;;;;3.72;2.42;;;;;;;0.59;94.79;95980.66;5049461;28;24481;-73
2022/04/18 04:18:38;;;;;;;2.75;2.33;;;;;;;0.51;96.81;95985.91;5049550;28;24415;-73
2022/04/18 04:21:04;;;;;;;2.65;2.15;;;;;;;0.95;92.23;95984.16;5049165;28;24434;-72
2022/04/18 04:23:31;;;;;;;2.45;1.90;;;;;;;1.18;84.83;95984.47;5049662;28;24427;-73
2022/04/18 04:25:59;;;;;;;2.97;2.13;;;;;;;1.27;83.00;95991.09;5050537;28;24475;-73
2022/04/18 04:28:25;;;;;;;3.17;2.53;;;;;;;1.19;85.72;95985.34;5053194;28;24493;-72
2022/04/18 04:30:52;;;;;;;3.80;2.78;;;;;;;0.90;88.56;96001.28;5052648;28;24987;-72
2022/04/18 04:33:18;;;;;;;3.93;2.60;;;;;;;0.87;89.25;95997.06;5052954;28;25068;-72
2022/04/18 04:35:45;;;;;;;5.38;2.80;;;;;;;0.74;90.32;96000.75;5052816;28;24427;-72
2022/04/18 04:38:11;;;;;;;4.25;2.83;;;;;;;0.87;91.30;96001.34;5053105;28;24426;-72
2022/04/18 04:40:38;;;;;;;3.03;2.60;;;;;;;1.02;89.16;95988.25;5052993;28;24411;-72
2022/04/18 04:43:06;;;;;;;4.82;2.53;;;;;;;1.16;86.94;95993.06;5052609;28;24422;-73
2022/04/18 04:45:32;;;;;;;4.57;2.83;;;;;;;1.30;85.13;95991.03;5052565;28;24999;-72
2022/04/18 04:47:59;;;;;;;4.53;2.90;;;;;;;1.38;85.57;95990.88;5052568;28;24476;-72
2022/04/18 04:50:25;;;;;;;3.30;2.45;;;;;;;1.35;85.58;95993.47;5052604;28;24497;-73
2022/04/18 04:52:52;;;;;;;3.65;2.65;;;;;;;1.26;85.64;95989.44;5052579;28;24424;-72
2022/04/18 04:55:18;;;;;;;4.75;2.88;;;;;;;0.99;87.31;95980.66;5052606;28;24415;-72
2022/04/18 04:57:45;;;;;;;3.90;2.75;;;;;;;0.88;89.89;95974.97;5052560;28;24465;-73
2022/04/18 05:00:14;;;;;;;4.55;3.05;;;;;;;0.73;90.94;95971.88;5052454;28;24961;-73
2022/04/18 05:02:40;;;;;;;4.93;3.25;;;;;;;0.82;93.12;95968.31;5052323;28;24836;-72
2022/04/18 05:05:08;;;;;;;3.53;3.13;;;;;;;1.04;92.68;95965.25;5052935;28;24964;-74
2022/04/18 05:07:34;;;;;;;4.63;3.35;;;;;;;1.32;89.59;95975.69;5054831;28;24428;-73
2022/04/18 05:10:01;;;;;;;5.10;2.83;;;;;;;1.45;88.25;95969.44;5054436;28;24442;-73
2022/04/18 05:12:28;;;;;;;3.30;2.60;;;;;;;1.52;88.20;95975.19;5054844;28;24510;-74
2022/04/18 05:14:55;;;;;;;3.47;2.60;;;;;;;1.43;88.38;95982.22;5053944;28;24471;-73
2022/04/18 05:17:23;;;;;;;4.35;2.50;;;;;;;1.35;90.01;95983.28;5053876;28;24412;-74
2022/04/18 05:19:49;;;;;;;4.15;2.20;;;;;;;1.37;90.11;95979.81;5054336;28;24411;-74
2022/04/18 05:22:15;;;;;;;5.32;2.38;;;;;;;1.69;89.30;95986.69;5053519;28;24793;-73
2022/04/18 05:24:42;;;;;;;2.78;2.08;;;;;;;1.96;89.24;95974.09;5053497;28;24972;-73
2022/04/18 05:27:09;;;;;;;3.08;2.47;;;;;;;2.47;86.62;95983.81;5053914;28;24828;-74
2022/04/18 05:29:35;;;;;;;3.45;2.50;;;;;;;2.78;83.50;95981.25;5053771;28;24520;-74
2022/04/18 05:32:02;;;;;;;4.10;2.65;;;;;;;2.56;83.98;95983.56;5053686;28;24435;-74
2022/04/18 05:34:30;;;;;;;4.47;2.47;;;;;;;2.47;86.06;95981.25;5053868;28;24427;-73
2022/04/18 05:36:56;;;;;;;4.75;2.33;;;;;;;2.61;87.54;95984.28;5052491;28;24427;-74
2022/04/18 05:39:22;;;;;;;4.18;2.72;;;;;;;2.82;87.01;95982.00;5053284;28;24430;-73
2022/04/18 05:41:49;;;;;;;4.80;3.20;;;;;;;2.95;86.56;95979.91;5052647;28;24435;-73
2022/04/18 05:44:15;;;;;;;3.45;2.97;;;;;;;3.03;87.19;95981.34;5052877;28;24420;-74
2022/04/18 05:46:42;;;;;;;5.18;3.22;;;;;;;2.99;87.66;95989.16;5052891;28;24979;-74
2022/04/18 05:49:08;;;;;;;4.20;3.10;;;;;;;3.06;88.88;95990.66;5053480;28;24450;-74
2022/04/18 05:51:38;;;;;;;5.75;2.90;;;;;;;3.27;85.52;95981.50;5053715;28;24419;-73
2022/04/18 05:54:05;;;;;;;5.40;2.90;;;;;;;3.30;86.16;95986.50;5053864;28;24810;-74
2022/04/18 05:56:32;;;;;;;4.22;3.20;;;;;;;3.53;85.40;95980.69;5053836;28;24427;-74
2022/04/18 05:58:59;;;;;;;5.32;2.88;;;;;;;3.73;87.24;95972.34;5053188;28;25312;-73
2022/04/18 06:01:25;;;;;;;4.88;2.88;;;;;;;3.77;87.39;95964.50;5053524;28;24422;-74
2022/04/18 06:03:52;;;;;;;3.70;2.75;;;;;;;3.83;86.90;95972.00;5053512;28;24454;-74
2022/04/18 06:06:18;;;;;;;3.25;2.75;;;;;;;3.99;88.59;95968.94;5053186;28;24785;-74
2022/04/18 06:08:46;;;;;;;7.60;3.22;;;;;;;4.04;87.43;95967.91;5052132;28;24982;-74
2022/04/18 06:11:12;;;;;;;7.00;2.88;;;;;;;4.05;82.73;95972.13;5053327;28;24434;-73
2022/04/18 06:13:39;;;;;;;4.93;3.42;;;;;;;3.81;79.32;95971.22;5053660;28;24481;-74
2022/04/18 06:16:06;;;;;;;4.65;2.85;;;;;;;3.81;79.49;95980.63;5052804;28;24477;-73
2022/04/18 06:18:33;;;;;;;4.83;2.83;;;;;;;3.35;79.90;95984.66;5052840;28;24999;-74
2022/04/18 06:20:59;;;;;;;4.63;2.50;;;;;;;3.79;79.12;95984.97;5052787;28;24424;-74
2022/04/18 06:23:26;;;;;;;4.60;2.70;;;;;;;3.81;77.81;95978.91;5052275;28;24427;-73
2022/04/18 06:25:54;;;;;;;3.72;2.80;;;;;;;3.92;77.59;95975.16;5052608;28;24423;-74
2022/04/18 06:28:20;;;;;;;2.95;2.33;;;;;;;3.96;76.47;95979.28;5052753;28;24956;-77
2022/04/18 06:30:47;;;;;;;3.55;2.45;;;;;;;4.05;77.40;95971.28;5052808;28;24470;-74
2022/04/18 06:33:13;;;;;;;3.88;2.47;;;;;;;3.84;77.45;95981.34;5053609;28;24461;-74
2022/04/18 06:35:41;;;;;;;2.85;2.35;;;;;;;3.82;78.00;95980.59;5053221;28;25007;-74
2022/04/18 06:38:08;;;;;;;4.43;2.72;;;;;;;3.99;78.02;95980.00;5052831;28;24425;-74
2022/04/18 06:40:35;;;;;;;3.53;2.38;;;;;;;4.34;75.08;95973.69;5052885;28;24458;-75
2022/04/18 06:43:03;;;;;;;3.50;2.50;;;;;;;4.56;74.89;95976.34;5052186;28;24419;-74
2022/04/18 06:45:31;;;;;;;3.90;2.83;;;;;;;4.85;73.21;95972.69;5053224;28;24430;-74
2022/04/18 06:47:57;;;;;;;3.65;2.70;;;;;;;5.04;71.90;95970.28;5050352;28;24971;-72
2022/04/18 06:50:24;;;;;;;3.58;2.72;;;;;;;5.18;71.90;95974.06;5050438;28;24785;-72
2022/04/18 06:52:51;;;;;;;4.33;2.97;;;;;;;5.42;70.11;95970.53;5050647;28;24957;-74
2022/04/18 06:55:17;;;;;;;4.57;2.88;;;;;;;5.59;70.16;95977.56;5050256;28;24553;-73
2022/04/18 06:57:43;;;;;;;3.63;3.03;;;;;;;5.69;68.22;95984.03;5050922;28;24419;-74
2022/04/18 07:00:11;;;;;;;3.63;2.80;;;;;;;5.88;67.74;95967.84;5051700;28;24451;-75
2022/04/18 07:02:45;;;;;;;5.80;3.00;;;;;;;6.40;68.46;95969.09;5051279;28;24422;-74
2022/04/18 07:05:11;;;;;;;3.90;3.13;;;;;;;6.40;62.16;95969.09;5050800;28;24467;-73
2022/04/18 07:07:38;;;;;;;4.03;3.00;;;;;;;6.25;63.04;95959.47;5050574;28;24778;-73
2022/04/18 07:10:05;;;;;;;4.40;3.42;;;;;;;6.48;61.93;95963.63;5051251;28;24451;-74
2022/04/18 07:12:32;;;;;;;9.77;5.75;;;;;;;6.42;61.83;95964.72;5051216;28;24416;-75
2022/04/18 07:14:59;;;;;;;8.15;5.05;;;;;;;6.47;62.04;95969.66;5051122;28;24531;-74
2022/04/18 07:17:27;;;;;;;9.67;5.83;;;;;;;6.86;62.46;95963.66;5051477;28;24777;-75
2022/04/18 07:19:54;;;;;;;6.38;4.22;;;;;;;7.13;60.00;95967.56;5051295;28;24518;-74
2022/04/18 07:22:20;;;;;;;8.10;4.63;;;;;;;7.20;60.93;95968.94;5050483;28;24438;-75
2022/04/18 07:24:47;;;;;;;6.30;4.45;;;;;;;7.42;61.76;95966.22;5050940;28;24427;-75
2022/04/18 07:27:13;;;;;;;3.55;3.25;;;;;;;7.39;60.66;95965.53;5051154;28;24423;-74
2022/04/18 07:29:40;;;;;;;3.90;3.10;;;;;;;7.41;59.94;95963.69;5050675;28;24454;-74
2022/04/18 07:32:08;;;;;;;5.57;3.50;;;;;;;7.50;60.08;95958.94;5050579;28;24423;-75
2022/04/18 07:34:36;;;;;;;5.53;3.33;;;;;;;7.78;59.36;95954.19;5050297;28;25040;-74
2022/04/18 07:37:02;;;;;;;7.20;3.33;;;;;;;7.84;57.76;95956.50;5051180;28;20767;-75
2022/04/18 07:39:28;;;;;;;5.18;3.53;;;;;;;7.83;58.18;95950.50;5050107;28;24411;-75
2022/04/18 07:41:55;;;;;;;4.17;2.97;;;;;;;8.10;56.83;95956.03;5046820;28;24525;-75
2022/04/18 07:44:22;;;;;;;6.05;3.50;;;;;;;8.52;55.40;95954.78;5051165;28;24438;-75
2022/04/18 07:46:48;;;;;;;3.50;2.83;;;;;;;8.54;54.49;95950.38;5049802;28;24945;-74
2022/04/18 07:49:15;;;;;;;5.00;3.53;;;;;;;8.77;54.26;95956.09;5066424;28;24431;-74
2022/04/18 07:51:42;;;;;;;4.32;3.00;;;;;;;8.77;52.77;95949.19;5069751;28;24434;-75
2022/04/18 07:54:12;;;;;;;3.10;2.70;;;;;;;8.94;52.53;95956.88;5070711;28;20761;-75
2022/04/18 07:56:39;;;;;;;4.03;3.13;;;;;;;9.50;50.86;95959.03;5070845;28;24476;-75
2022/04/18 07:59:06;;;;;;;4.72;2.78;;;;;;;9.51;51.43;95955.53;5070450;28;24415;-68
2022/04/18 08:01:33;;;;;;;3.45;2.70;;;;;;;9.38;50.79;95958.81;5056348;28;24466;-75
2022/04/18 08:04:01;;;;;;;4.13;2.92;;;;;;;9.26;51.92;95958.63;5055846;28;20759;-77
2022/04/18 08:06:27;;;;;;;3.58;2.97;;;;;;;10.13;51.00;95951.16;5055122;28;20775;-76
2022/04/18 08:08:55;;;;;;;3.65;2.80;;;;;;;10.32;50.10;95950.94;5055800;28;24867;-77
2022/04/18 08:11:22;;;;;;;3.80;2.72;;;;;;;10.52;49.74;95947.16;5047531;28;20818;-76
2022/04/18 08:13:50;;;;;;;3.20;2.63;;;;;;;10.51;48.59;95955.84;5036687;28;20761;-75
2022/04/18 08:16:17;;;;;;;11.73;3.22;;;;;;;10.68;49.18;95954.81;5035487;28;24424;-73
2022/04/18 08:18:45;;;;;;;3.72;3.05;;;;;;;10.63;48.85;95948.16;5032944;28;20760;-74
2022/04/18 08:21:11;;;;;;;5.78;2.80;;;;;;;11.26;48.91;95954.69;5033204;28;20752;-74
2022/04/18 08:23:38;;;;;;;5.32;2.60;;;;;;;11.32;47.70;95956.06;5033457;28;24427;-74
2022/04/18 08:26:06;;;;;;;5.80;3.00;;;;;;;11.77;46.79;95952.31;5033224;28;25175;-75
2022/04/18 08:28:33;;;;;;;7.25;3.03;;;;;;;11.94;46.45;95959.03;5033850;28;24423;-74
2022/04/18 08:31:00;;;;;;;4.45;2.15;;;;;;;12.51;43.45;95953.50;5032795;28;24475;-72
2022/04/18 08:33:29;;;;;;;3.70;2.00;;;;;;;12.63;46.23;95956.19;5033311;28;24972;-74
2022/04/18 08:35:56;;;;;;;2.38;2.10;;;;;;;12.87;44.77;95958.88;5033251;28;24436;-73
2022/04/18 08:38:23;;;;;;;3.47;2.40;;;;;;;12.54;47.09;95949.88;5033470;28;24427;-74
2022/04/18 08:40:51;;;;;;;4.55;2.40;;;;;;;12.39;48.46;95950.91;5033266;28;24442;-74
2022/04/18 08:43:19;;;;;;;3.63;2.47;;;;;;;12.09;44.34;95957.22;5032991;28;24421;-73
2022/04/18 08:45:46;;;;;;;4.88;2.78;;;;;;;12.43;47.19;95955.78;5032786;28;20773;-74
2022/04/18 08:53:41;;;;;;;3.25;2.20;;;;;;;12.74;43.29;95956.31;5033471;28;20707;-74
2022/04/18 08:56:08;;;;;;;6.70;2.85;;;;;;;13.06;46.38;95949.72;5032448;28;24430;-74
2022/04/18 08:58:36;;;;;;;2.95;2.20;;;;;;;12.62;43.62;95957.97;5033263;28;20760;-70
2022/04/18 09:01:04;;;;;;;4.43;2.35;;;;;;;12.63;46.08;95951.84;5032125;28;24453;-74
2022/04/18 09:03:31;;;;;;;2.65;2.42;;;;;;;12.94;45.18;95952.31;5032595;28;24457;-74
2022/04/18 09:06:05;;;;;;;4.60;2.60;;;;;;;12.88;43.64;95944.97;5050603;28;24443;-74
2022/04/18 09:08:34;;;;;;;5.50;2.35;;;;;;;12.91;43.99;95944.75;5045047;28;24431;-74
2022/04/18 09:11:00;;;;;;;5.32;2.47;;;;;;;13.04;48.15;95948.16;5052281;28;20833;-74
2022/04/18 09:13:27;;;;;;;3.28;2.47;;;;;;;13.22;46.52;95944.25;5051961;28;21309;-74
2022/04/18 09:15:55;;;;;;;4.80;2.63;;;;;;;13.17;41.07;95940.34;5052472;28;24415;-74
2022/04/18 09:18:24;;;;;;;4.80;2.88;;;;;;;13.38;42.20;95936.22;5052605;28;24415;-75
2022/04/18 09:20:52;;;;;;;4.38;2.40;;;;;;;13.71;46.70;95929.53;5052530;28;24415;-70
2022/04/18 09:23:23;;;;;;;5.72;2.70;;;;;;;13.88;39.05;95929.16;5052407;28;24435;-75
2022/04/18 09:25:55;;;;;;;4.88;2.13;;;;;;;13.34;39.40;95936.56;5052177;28;24462;-74
2022/04/18 09:28:25;;;;;;;5.88;2.42;;;;;;;13.08;41.75;95931.41;5052447;28;24422;-74
2022/04/18 09:31:00;;;;;;;4.75;2.55;;;;;;;13.27;44.32;95924.00;5052270;28;24554;-70
2022/04/18 09:33:32;;;;;;;4.07;2.20;;;;;;;13.21;41.68;95933.97;5051859;28;24454;-72
2022/04/18 09:36:20;;;;;;;3.17;2.50;;;;;;;13.45;40.99;95934.03;5051594;28;24438;-74
2022/04/18 09:38:49;;;;;;;4.78;2.70;;;;;;;13.02;39.36;95929.25;5045821;28;24475;-73
2022/04/18 09:41:17;;;;;;;3.17;2.40;;;;;;;13.18;42.75;95932.41;5051342;28;24426;-74
2022/04/18 09:43:45;;;;;;;6.00;2.78;;;;;;;13.55;42.94;95927.22;5052173;28;24411;-74
2022/04/18 09:46:14;;;;;;;3.00;2.30;;;;;;;13.55;41.53;95927.22;5051614;28;24426;-74
2022/04/18 09:48:41;;;;;;;3.80;2.47;;;;;;;13.68;43.75;95917.59;5051965;28;21300;-75
2022/04/18 09:51:13;;;;;;;4.03;2.60;;;;;;;13.57;40.98;95927.94;5052375;28;24447;-73
2022/04/18 09:53:41;;;;;;;4.20;2.60;;;;;;;13.29;47.54;95929.91;5052530;28;24464;-74
2022/04/18 09:56:08;;;;;;;2.95;2.35;;;;;;;13.45;42.11;95934.84;5052038;28;24430;-75
2022/04/18 09:58:36;;;;;;;5.47;2.38;;;;;;;13.42;41.46;95931.63;5051660;28;21299;-74
2022/04/18 10:01:06;;;;;;;3.80;2.42;;;;;;;13.65;43.85;95935.22;5051502;28;24427;-74
2022/04/18 10:03:35;;;;;;;3.53;2.08;;;;;;;13.54;37.47;95931.59;5051928;28;24426;-75
2022/04/18 10:06:03;;;;;;;3.67;2.15;;;;;;;13.72;41.13;95926.00;5051163;28;24813;-73
2022/04/18 10:08:30;;;;;;;3.75;2.63;;;;;;;13.74;42.54;95921.53;5051699;28;24445;-76
2022/04/18 10:10:58;;;;;;;3.50;2.30;;;;;;;13.63;36.90;95921.47;5051852;28;24443;-74
2022/04/18 10:13:25;;;;;;;3.03;2.30;;;;;;;13.62;38.70;95917.22;5052325;28;24412;-74
2022/04/18 10:15:52;;;;;;;3.95;2.35;;;;;;;13.46;39.34;95920.94;5052091;28;24543;-74
2022/04/18 10:18:19;;;;;;;4.85;2.78;;;;;;;13.48;39.37;95932.03;5052122;28;24458;-75
2022/04/18 10:20:59;;;;;;;5.13;2.97;;;;;;;13.76;39.40;95917.88;5051574;28;25058;-74
2022/04/18 10:24:09;;;;;;;3.53;2.60;;;;;;;14.08;43.20;95909.44;5051953;28;24431;-73
2022/04/18 10:27:24;;;;;;;4.60;2.72;;;;;;;14.19;39.29;95903.44;5025859;28;24980;-73
2022/04/18 10:29:54;;;;;;;3.28;2.53;;;;;;;13.71;38.64;95906.13;5050944;28;24446;-73
2022/04/18 10:32:22;;;;;;;4.57;2.60;;;;;;;14.06;37.07;95900.94;5050989;28;24442;-73
2022/04/18 10:34:51;;;;;;;5.85;2.40;;;;;;;14.07;35.00;95901.75;5051094;28;24523;-71
2022/04/18 10:37:22;;;;;;;3.93;2.53;;;;;;;14.30;36.01;95895.63;5051099;28;24423;-73
2022/04/18 10:39:56;;;;;;;2.70;2.40;;;;;;;14.37;39.78;95898.63;5051145;28;24510;-73
2022/04/18 10:42:24;;;;;;;3.85;2.75;;;;;;;14.08;34.52;95890.38;5050753;28;25002;-72
2022/04/18 10:45:03;;;;;;;5.60;2.97;;;;;;;14.52;39.19;95894.88;5050934;28;24539;-73
2022/04/18 10:48:03;;;;;;;4.68;3.17;;;;;;;14.61;35.62;95883.75;5050951;28;24442;-73
2022/04/18 10:50:34;;;;;;;4.30;2.60;;;;;;;14.76;35.31;95889.56;5050721;28;24447;-73
2022/04/18 10:53:20;;;;;;;3.78;2.78;;;;;;;14.94;41.34;95887.28;5048844;28;24852;-72
2022/04/18 10:56:09;;;;;;;2.75;2.30;;;;;;;14.63;39.82;95886.25;5050625;28;24961;-73
2022/04/18 10:58:35;;;;;;;3.40;2.60;;;;;;;14.53;35.31;95886.09;5051180;28;24507;-74
2022/04/18 11:01:05;;;;;;;8.80;3.15;;;;;;;14.61;37.23;95882.91;5050611;28;24407;-74
2022/04/18 11:03:53;;;;;;;3.45;2.58;;;;;;;14.43;41.71;95875.53;5050955;28;25015;-73
2022/04/18 11:06:48;;;;;;;3.78;2.65;;;;;;;14.59;41.45;95883.03;5050824;28;24801;-71
2022/04/18 11:09:19;;;;;;;4.20;2.72;;;;;;;14.49;42.84;95869.00;5050280;28;24442;-71
2022/04/18 11:11:48;;;;;;;4.00;2.67;;;;;;;14.60;37.30;95869.03;5049974;28;24828;-72
2022/04/18 11:14:16;;;;;;;3.92;2.60;;;;;;;14.76;40.49;95864.31;5050357;28;24518;-71
2022/04/18 11:16:58;;;;;;;3.75;3.28;;;;;;;14.97;38.31;95871.41;5050273;28;24477;-71
2022/04/18 11:19:27;;;;;;;3.00;2.70;;;;;;;14.45;38.76;95859.78;5050236;28;24418;-71
2022/04/18 11:22:07;;;;;;;3.60;2.72;;;;;;;14.49;39.88;95864.66;5049770;28;24442;-71
2022/04/18 11:24:36;;;;;;;3.50;2.30;;;;;;;14.14;37.54;95858.69;5050168;28;24431;-72
2022/04/18 11:27:06;;;;;;;3.20;2.40;;;;;;;14.60;39.31;95850.81;5050248;28;24514;-71
2022/04/18 11:29:33;;;;;;;2.70;2.00;;;;;;;14.99;44.18;95848.66;5050201;28;24412;-72
2022/04/18 11:32:00;;;;;;;2.95;2.33;;;;;;;14.58;39.33;95851.88;5049802;28;24439;-71
2022/04/18 11:34:28;;;;;;;3.10;2.40;;;;;;;14.41;37.15;95848.75;5049914;28;24426;-71
2022/04/18 11:36:56;;;;;;;2.75;2.10;;;;;;;14.51;37.09;95841.09;5054275;28;24418;-71
2022/04/18 11:39:22;;;;;;;6.30;2.10;;;;;;;14.39;37.65;95844.63;5054289;28;24533;-71
2022/04/18 11:42:02;;;;;;;3.17;2.60;;;;;;;14.37;39.20;95844.72;5053983;28;24442;-71
2022/04/18 11:44:38;;;;;;;3.67;2.65;;;;;;;14.25;39.49;95840.47;5053868;28;24423;-71
2022/04/18 11:47:08;;;;;;;10.90;2.70;;;;;;;14.47;39.15;95837.88;5053950;28;24423;-71
2022/04/18 11:49:34;;;;;;;2.78;2.25;;;;;;;14.60;38.56;95829.94;5054055;28;24465;-71
2022/04/18 11:52:00;;;;;;;4.10;2.42;;;;;;;14.52;37.70;95824.50;5053784;28;24447;-71
2022/04/18 11:54:27;;;;;;;9.43;2.90;;;;;;;14.70;38.68;95824.84;5053699;28;24843;-71
2022/04/18 11:56:58;;;;;;;4.00;2.92;;;;;;;14.65;42.26;95825.22;5054327;28;24484;-71